createdAt,value
2018-12-23T00:05:24.929Z,2.73
2018-12-23T00:11:28.256Z,2.57
2018-12-23T00:17:31.595Z,2.20
2018-12-23T00:23:34.923Z,1.70
2018-12-23T00:29:38.251Z,1.70
2018-12-23T00:35:41.577Z,1.53
2018-12-23T00:41:44.902Z,1.40
2018-12-23T00:47:48.281Z,1.47
2018-12-23T00:53:52.519Z,1.13
2018-12-23T00:59:55.868Z,1.40
2018-12-23T01:05:59.214Z,1.10
2018-12-23T01:12:02.545Z,1.00
2018-12-23T01:18:05.894Z,0.90
2018-12-23T01:24:09.223Z,1.00
2018-12-23T01:30:12.548Z,1.00
2018-12-23T01:36:15.873Z,1.40
2018-12-23T01:42:19.201Z,1.10
2018-12-23T01:48:22.535Z,0.97
2018-12-23T01:54:25.865Z,1.30
2018-12-23T02:00:29.267Z,1.70
2018-12-23T02:06:32.627Z,1.80
2018-12-23T02:12:35.996Z,2.27
2018-12-23T02:18:39.336Z,2.03
2018-12-23T02:24:42.683Z,2.70
2018-12-23T02:30:46.000Z,3.73
2018-12-23T02:36:49.367Z,4.10
2018-12-23T02:42:52.710Z,3.00
2018-12-23T02:48:56.048Z,4.60
2018-12-23T02:54:59.390Z,5.27
2018-12-23T03:01:02.734Z,5.17
2018-12-23T03:07:06.066Z,5.93
2018-12-23T03:13:09.424Z,5.80
2018-12-23T03:19:12.767Z,6.77
2018-12-23T03:25:16.109Z,6.73
2018-12-23T03:31:19.535Z,8.33
2018-12-23T03:37:22.871Z,7.43
2018-12-23T03:43:26.206Z,5.90
2018-12-23T03:49:29.585Z,6.00
2018-12-23T03:55:32.916Z,5.77
2018-12-23T04:01:36.239Z,5.90
2018-12-23T04:07:39.556Z,6.17
2018-12-23T04:13:42.870Z,7.33
2018-12-23T04:19:46.254Z,6.60
2018-12-23T04:25:49.579Z,5.80
2018-12-23T04:31:52.908Z,7.47
2018-12-23T04:37:56.329Z,8.07
2018-12-23T04:43:59.696Z,8.20
2018-12-23T04:50:03.200Z,8.40
2018-12-23T04:56:06.543Z,7.93
2018-12-23T05:02:09.856Z,7.80
2018-12-23T05:08:13.206Z,8.70
2018-12-23T05:14:16.546Z,7.37
2018-12-23T05:20:19.890Z,7.57
2018-12-23T05:26:23.256Z,7.00
2018-12-23T05:32:26.780Z,6.97
2018-12-23T05:38:30.123Z,6.40
2018-12-23T05:44:33.464Z,6.20
2018-12-23T05:50:36.791Z,7.40
2018-12-23T05:56:40.125Z,6.40
2018-12-23T06:02:43.451Z,8.10
2018-12-23T06:08:46.787Z,7.97
2018-12-23T06:14:50.131Z,6.10
2018-12-23T06:20:53.465Z,6.07
2018-12-23T06:26:56.833Z,7.00
2018-12-23T06:33:00.161Z,6.50
2018-12-23T06:39:04.610Z,6.90
2018-12-23T06:45:07.972Z,6.30
2018-12-23T06:51:11.338Z,6.87
2018-12-23T06:57:14.682Z,6.43
2018-12-23T07:03:18.025Z,6.63
2018-12-23T07:09:21.517Z,6.23
2018-12-23T07:15:24.864Z,5.50
2018-12-23T07:21:28.198Z,6.07
2018-12-23T07:27:31.528Z,6.70
2018-12-23T07:33:34.872Z,5.93
2018-12-23T07:39:38.195Z,7.50
2018-12-23T07:45:41.531Z,6.10
2018-12-23T07:51:44.882Z,7.23
2018-12-23T07:57:48.215Z,5.53
2018-12-23T08:03:51.554Z,5.43
2018-12-23T08:09:54.881Z,5.57
2018-12-23T08:15:58.208Z,4.97
2018-12-23T08:22:01.551Z,4.97
2018-12-23T08:28:04.978Z,4.97
2018-12-23T08:34:08.322Z,5.10
2018-12-23T08:40:11.657Z,6.30
2018-12-23T08:46:14.982Z,4.10
2018-12-23T08:52:18.326Z,4.67
2018-12-23T08:58:21.662Z,5.07
2018-12-23T09:04:24.984Z,3.80
2018-12-23T09:10:28.331Z,3.77
2018-12-23T09:16:31.692Z,4.80
2018-12-23T09:22:35.018Z,4.43
2018-12-23T09:28:38.387Z,4.63
2018-12-23T09:34:41.725Z,4.40
2018-12-23T09:40:45.063Z,3.80
2018-12-23T09:46:48.396Z,4.93
2018-12-23T09:52:51.727Z,4.27
2018-12-23T09:58:55.068Z,3.87
2018-12-23T10:04:58.399Z,4.20
2018-12-23T10:11:01.731Z,4.53
2018-12-23T10:17:05.051Z,4.40
2018-12-23T10:23:08.406Z,4.57
2018-12-23T10:29:11.751Z,5.00
2018-12-23T10:35:15.133Z,5.23
2018-12-23T10:41:18.471Z,4.70
2018-12-23T10:47:21.816Z,7.10
2018-12-23T10:53:25.150Z,8.53
2018-12-23T10:59:28.475Z,5.70
2018-12-23T11:05:31.838Z,4.60
2018-12-23T11:11:35.210Z,5.93
2018-12-23T11:17:38.772Z,5.80
2018-12-23T11:23:42.105Z,4.77
2018-12-23T11:29:45.453Z,5.50
2018-12-23T11:35:48.779Z,5.90
2018-12-23T11:41:52.149Z,5.63
2018-12-23T11:47:55.474Z,6.50
2018-12-23T11:53:58.818Z,8.93
2018-12-23T12:00:02.169Z,5.40
2018-12-23T12:06:05.527Z,5.40
2018-12-23T12:12:08.896Z,5.80
2018-12-23T12:18:12.221Z,5.90
2018-12-23T12:24:15.558Z,5.80
2018-12-23T12:30:18.914Z,7.67
2018-12-23T12:36:22.256Z,6.20
2018-12-23T12:42:25.603Z,7.10
2018-12-23T12:48:28.951Z,9.90
2018-12-23T12:54:32.269Z,7.30
2018-12-23T13:00:35.625Z,7.07
2018-12-23T13:06:38.963Z,6.70
2018-12-23T13:12:42.434Z,6.30
2018-12-23T13:18:45.772Z,5.53
2018-12-23T13:24:49.129Z,5.70
2018-12-23T13:30:52.459Z,7.57
2018-12-23T13:36:55.794Z,8.73
2018-12-23T13:50:59.969Z,7.53
2018-12-23T13:57:44.907Z,6.60
2018-12-23T14:04:16.699Z,6.00
2018-12-23T14:10:50.084Z,9.17
2018-12-23T14:16:54.905Z,8.77
2018-12-23T14:22:59.586Z,6.50
2018-12-23T14:29:04.248Z,6.60
2018-12-23T14:35:09.002Z,17.57
2018-12-23T14:41:13.723Z,7.60
2018-12-23T14:47:18.378Z,7.20
2018-12-23T14:53:23.040Z,7.80
2018-12-23T14:59:27.700Z,6.77
2018-12-23T15:05:32.372Z,6.30
2018-12-23T15:11:37.111Z,5.77
2018-12-23T15:17:41.892Z,6.30
2018-12-23T15:23:46.558Z,5.93
2018-12-23T15:29:51.239Z,5.10
2018-12-23T15:35:55.910Z,4.40
2018-12-23T15:42:00.572Z,4.60
2018-12-23T15:48:05.203Z,4.63
2018-12-23T15:54:09.865Z,4.57
2018-12-23T16:00:14.549Z,4.13
2018-12-23T16:06:19.202Z,4.77
2018-12-23T16:12:23.861Z,5.63
2018-12-23T16:18:28.591Z,5.27
2018-12-23T16:24:33.289Z,4.80
2018-12-23T16:30:38.079Z,4.73
2018-12-23T16:36:42.727Z,5.17
2018-12-23T16:42:47.399Z,6.07
2018-12-23T16:48:53.172Z,6.00
2018-12-23T16:54:57.829Z,6.63
2018-12-23T17:01:02.623Z,6.50
2018-12-23T17:07:07.401Z,6.60
2018-12-23T17:13:12.080Z,7.13
2018-12-23T17:19:16.744Z,6.50
2018-12-23T17:25:21.406Z,8.07
2018-12-23T17:31:26.076Z,6.10
2018-12-23T17:37:30.751Z,6.00
2018-12-23T17:43:35.397Z,5.07
2018-12-23T17:49:40.143Z,5.00
2018-12-23T17:55:44.879Z,4.07
2018-12-23T18:01:49.611Z,4.57
2018-12-23T18:07:54.271Z,3.97
2018-12-23T18:13:59.006Z,5.03
2018-12-23T18:20:03.937Z,4.70
2018-12-23T18:26:08.596Z,4.40
2018-12-23T18:32:13.352Z,3.97
2018-12-23T18:38:18.014Z,3.90
2018-12-23T18:44:22.670Z,3.80
2018-12-23T18:50:27.351Z,11.03
2018-12-23T18:56:32.768Z,5.40
2018-12-23T19:02:37.830Z,6.77
2018-12-23T19:08:47.521Z,9.67
2018-12-23T19:15:17.681Z,10.40
2018-12-23T19:22:06.950Z,8.30
2018-12-23T19:28:28.027Z,9.40
2018-12-23T19:35:20.026Z,6.90
2018-12-23T19:42:00.416Z,5.80
2018-12-23T19:48:21.284Z,6.73
2018-12-23T19:54:42.228Z,12.20
2018-12-23T20:01:12.247Z,8.63
2018-12-23T20:07:50.946Z,8.33
2018-12-23T20:14:26.416Z,6.10
2018-12-23T20:20:51.872Z,5.57
2018-12-23T20:27:26.507Z,5.07
2018-12-23T20:33:50.474Z,4.53
2018-12-23T20:40:36.795Z,4.73
2018-12-23T20:47:03.801Z,6.47
2018-12-23T20:53:21.816Z,4.80
2018-12-23T20:59:40.003Z,14.17
2018-12-23T21:06:01.022Z,4.17
2018-12-23T21:12:44.796Z,13.10
2018-12-23T21:19:15.098Z,9.13
2018-12-23T21:26:01.996Z,8.03
2018-12-23T21:32:48.814Z,8.27
2018-12-23T21:39:35.279Z,5.20
2018-12-23T21:46:16.166Z,5.43
2018-12-23T21:52:39.736Z,4.13
2018-12-23T21:59:00.016Z,6.00
2018-12-23T22:05:17.982Z,3.63
2018-12-23T22:11:49.447Z,3.50
2018-12-23T22:17:55.849Z,2.83
2018-12-23T22:24:00.667Z,2.30
2018-12-23T22:30:07.135Z,1.97
2018-12-23T22:36:11.784Z,1.60
2018-12-23T22:42:16.464Z,1.67
2018-12-23T22:48:21.207Z,2.50
2018-12-23T22:54:25.845Z,3.00
2018-12-23T23:00:31.638Z,2.33
2018-12-23T23:06:36.323Z,2.20
2018-12-23T23:12:40.977Z,2.20
2018-12-23T23:18:45.613Z,2.17
2018-12-23T23:24:50.366Z,1.80
2018-12-23T23:30:55.016Z,2.20
2018-12-23T23:36:59.656Z,2.40
2018-12-23T23:43:04.322Z,1.83
2018-12-23T23:49:08.990Z,1.80
2018-12-23T23:55:13.674Z,2.40
